PKOJE WAFP-WAFO

Flight info

Callsign PKOJE
Flight time N/A
Altitude 11000
Route DIOLA
Aircraft C172/L-SFG/C

Departure

Time 2026-04-27 05:39
Airport Kasiguncu Airport (WAFP)

Arrival

Time N/A
Airport Maleo Airport (WAFO)
Time Latitude Longitude Altitude Speed Heading
2026-04-27 05:37 -1.41391 120.66179 29 ft 5 kts 200°
2026-04-27 05:37 -1.41405 120.66161 29 ft 5 kts 275°
2026-04-27 05:37 -1.41383 120.66109 28 ft 11 kts 303°
2026-04-27 05:37 -1.41332 120.66030 28 ft 16 kts 301°
2026-04-27 05:38 -1.41358 120.65950 30 ft 27 kts 213°
2026-04-27 05:38 -1.41659 120.65758 36 ft 72 kts 211°
2026-04-27 05:38 -1.42095 120.65493 262 ft 71 kts 212°
2026-04-27 05:38 -1.42541 120.65435 475 ft 71 kts 147°
2026-04-27 05:39 -1.42875 120.65833 655 ft 76 kts 122°
2026-04-27 05:39 -1.43145 120.66306 827 ft 84 kts 118°
2026-04-27 05:39 -1.43447 120.66839 1022 ft 88 kts 121°
2026-04-27 05:39 -1.43766 120.67366 1276 ft 88 kts 120°
2026-04-27 05:40 -1.44079 120.67889 1512 ft 87 kts 120°
2026-04-27 05:40 -1.44389 120.68405 1752 ft 88 kts 120°
2026-04-27 05:40 -1.44700 120.68927 1982 ft 87 kts 120°
2026-04-27 05:40 -1.45013 120.69441 2193 ft 86 kts 121°
2026-04-27 05:41 -1.45325 120.69947 2398 ft 86 kts 121°
2026-04-27 05:41 -1.45639 120.70458 2611 ft 86 kts 121°
2026-04-27 05:41 -1.45950 120.70961 2829 ft 86 kts 121°
2026-04-27 05:41 -1.46356 120.71486 2866 ft 105 kts 141°
2026-04-27 05:42 -1.46956 120.71973 2866 ft 116 kts 141°
2026-04-27 05:42 -1.47611 120.72485 2881 ft 119 kts 141°
2026-04-27 05:42 -1.48240 120.72977 3024 ft 113 kts 141°
2026-04-27 05:42 -1.48851 120.73462 3143 ft 111 kts 137°
2026-04-27 05:43 -1.49396 120.74003 3277 ft 108 kts 134°
2026-04-27 05:43 -1.49937 120.74543 3376 ft 111 kts 134°
2026-04-27 05:43 -1.50485 120.75089 3509 ft 111 kts 134°
2026-04-27 05:43 -1.51023 120.75627 3643 ft 111 kts 133°
2026-04-27 05:44 -1.51560 120.76192 3731 ft 111 kts 130°
2026-04-27 05:44 -1.52095 120.76740 3810 ft 111 kts 134°
2026-04-27 05:44 -1.52604 120.77327 3929 ft 107 kts 130°
2026-04-27 05:44 -1.53074 120.77849 4164 ft 96 kts 131°
2026-04-27 05:45 -1.53647 120.78165 4354 ft 93 kts 148°
2026-04-27 05:45 -1.54096 120.78618 4484 ft 95 kts 116°
2026-04-27 05:45 -1.54351 120.79231 4607 ft 99 kts 137°
2026-04-27 05:45 -1.54906 120.79588 4783 ft 94 kts 139°
2026-04-27 05:46 -1.55348 120.80072 4938 ft 91 kts 126°
2026-04-27 05:46 -1.55722 120.80561 5115 ft 89 kts 132°
2026-04-27 05:46 -1.56169 120.80995 5276 ft 87 kts 133°
2026-04-27 05:46 -1.56587 120.81417 5460 ft 82 kts 133°
2026-04-27 05:47 -1.56966 120.81801 5631 ft 75 kts 133°
2026-04-27 05:47 -1.57303 120.82152 5772 ft 67 kts 130°
2026-04-27 05:47 -1.57648 120.82497 5810 ft 72 kts 133°
2026-04-27 05:47 -1.58011 120.82863 5860 ft 77 kts 134°
2026-04-27 05:48 -1.58407 120.83265 5911 ft 84 kts 135°
2026-04-27 05:48 -1.58848 120.83694 5964 ft 92 kts 135°
2026-04-27 05:48 -1.59317 120.84133 6038 ft 94 kts 136°
2026-04-27 05:48 -1.59788 120.84564 6159 ft 90 kts 137°
2026-04-27 05:49 -1.60228 120.84981 6268 ft 86 kts 127°
2026-04-27 05:49 -1.60610 120.85425 6368 ft 83 kts 131°
2026-04-27 05:49 -1.61015 120.85871 6403 ft 89 kts 132°
2026-04-27 05:49 -1.61455 120.86338 6451 ft 98 kts 133°
2026-04-27 05:50 -1.61945 120.86849 6499 ft 105 kts 133°
2026-04-27 05:50 -1.62466 120.87385 6551 ft 109 kts 133°
2026-04-27 05:50 -1.62992 120.87921 6597 ft 107 kts 133°
2026-04-27 05:50 -1.63505 120.88446 6641 ft 104 kts 134°
2026-04-27 05:51 -1.64003 120.88956 6723 ft 99 kts 133°
2026-04-27 05:51 -1.64455 120.89415 6845 ft 90 kts 133°
2026-04-27 05:51 -1.64883 120.89859 6986 ft 87 kts 133°
2026-04-27 05:51 -1.65292 120.90280 7118 ft 81 kts 134°
2026-04-27 05:52 -1.65681 120.90673 7251 ft 79 kts 133°
2026-04-27 05:52 -1.66042 120.91043 7357 ft 71 kts 130°
2026-04-27 05:52 -1.66493 120.91266 7277 ft 89 kts 185°
2026-04-27 05:52 -1.67138 120.91224 7322 ft 95 kts 181°
2026-04-27 05:53 -1.67790 120.91250 7443 ft 91 kts 155°
2026-04-27 05:53 -1.68077 120.91743 7537 ft 82 kts 91°
2026-04-27 05:53 -1.68113 120.92317 7646 ft 83 kts 94°
2026-04-27 05:53 -1.68133 120.92873 7763 ft 74 kts 96°
2026-04-27 05:54 -1.68271 120.93351 7796 ft 73 kts 122°
2026-04-27 05:54 -1.68630 120.93728 7860 ft 73 kts 136°
2026-04-27 05:54 -1.69014 120.94077 7888 ft 76 kts 135°
2026-04-27 05:54 -1.69385 120.94446 7951 ft 75 kts 131°
2026-04-27 05:55 -1.69748 120.94817 7991 ft 77 kts 134°
2026-04-27 05:55 -1.70136 120.95214 8034 ft 82 kts 134°
2026-04-27 05:55 -1.70551 120.95633 8085 ft 88 kts 133°
2026-04-27 05:55 -1.70986 120.96072 8131 ft 91 kts 133°
2026-04-27 05:56 -1.71443 120.96536 8171 ft 95 kts 134°
2026-04-27 05:56 -1.71919 120.97029 8197 ft 98 kts 134°
2026-04-27 05:56 -1.72392 120.97506 8222 ft 98 kts 133°
2026-04-27 05:56 -1.72876 120.97999 8252 ft 99 kts 134°
2026-04-27 05:57 -1.73354 120.98487 8300 ft 100 kts 134°
2026-04-27 05:57 -1.73844 120.98985 8339 ft 102 kts 133°
2026-04-27 05:57 -1.74344 120.99491 8338 ft 101 kts 134°
2026-04-27 05:57 -1.74815 120.99969 8314 ft 91 kts 132°
2026-04-27 05:58 -1.75262 121.00430 8350 ft 96 kts 134°
2026-04-27 05:58 -1.75738 121.00914 8358 ft 98 kts 133°
2026-04-27 05:58 -1.76229 121.01412 8351 ft 100 kts 134°
2026-04-27 05:58 -1.76731 121.01925 8350 ft 107 kts 134°
2026-04-27 05:59 -1.77248 121.02450 8343 ft 105 kts 133°
2026-04-27 05:59 -1.77757 121.02968 8343 ft 103 kts 133°
2026-04-27 05:59 -1.78256 121.03477 8337 ft 101 kts 133°
2026-04-27 05:59 -1.78751 121.03982 8338 ft 102 kts 133°
2026-04-27 06:00 -1.79741 121.04991 8339 ft 102 kts 134°
2026-04-27 06:00 -1.80233 121.05492 8339 ft 102 kts 133°
2026-04-27 06:00 -1.80732 121.06001 8336 ft 102 kts 133°
2026-04-27 06:01 -1.81237 121.06515 8341 ft 105 kts 133°
2026-04-27 06:01 -1.81748 121.07036 8340 ft 104 kts 133°
2026-04-27 06:01 -1.82255 121.07552 8337 ft 104 kts 133°
2026-04-27 06:01 -1.82753 121.08060 8341 ft 103 kts 133°
2026-04-27 06:02 -1.83261 121.08578 8335 ft 103 kts 133°
2026-04-27 06:02 -1.83761 121.09088 8336 ft 104 kts 134°
2026-04-27 06:02 -1.84067 121.09716 8342 ft 102 kts 99°
2026-04-27 06:02 -1.84265 121.10397 8341 ft 103 kts 105°
2026-04-27 06:03 -1.84458 121.11089 8345 ft 104 kts 105°
2026-04-27 06:03 -1.84657 121.11783 8345 ft 104 kts 105°
2026-04-27 06:03 -1.84852 121.12466 8345 ft 103 kts 105°
2026-04-27 06:03 -1.85048 121.13157 8346 ft 103 kts 105°
2026-04-27 06:04 -1.85245 121.13847 8347 ft 103 kts 105°
2026-04-27 06:04 -1.85443 121.14544 8347 ft 104 kts 105°
2026-04-27 06:04 -1.85638 121.15231 8348 ft 104 kts 105°
2026-04-27 06:04 -1.85835 121.15926 8342 ft 104 kts 105°
2026-04-27 06:05 -1.86032 121.16622 8342 ft 104 kts 105°
2026-04-27 06:05 -1.86229 121.17316 8344 ft 104 kts 104°
2026-04-27 06:05 -1.86427 121.18012 8347 ft 103 kts 104°
2026-04-27 06:05 -1.86620 121.18695 8348 ft 103 kts 104°
2026-04-27 06:06 -1.86775 121.19402 8342 ft 105 kts 102°
2026-04-27 06:06 -1.87030 121.20081 8357 ft 103 kts 109°
2026-04-27 06:06 -1.87311 121.20748 8351 ft 102 kts 113°
2026-04-27 06:06 -1.87594 121.21395 8343 ft 102 kts 104°
2026-04-27 06:07 -1.87828 121.22072 8339 ft 103 kts 107°
2026-04-27 06:07 -1.88065 121.22740 8336 ft 102 kts 107°
2026-04-27 06:07 -1.88305 121.23407 8335 ft 100 kts 108°
2026-04-27 06:07 -1.88545 121.24061 8340 ft 100 kts 108°
2026-04-27 06:08 -1.88788 121.24723 8338 ft 101 kts 108°
2026-04-27 06:08 -1.89031 121.25378 8334 ft 102 kts 108°
2026-04-27 06:08 -1.89278 121.26050 8342 ft 103 kts 108°
2026-04-27 06:08 -1.89527 121.26725 8341 ft 102 kts 109°
2026-04-27 06:09 -1.89773 121.27393 8341 ft 103 kts 108°
2026-04-27 06:09 -1.90021 121.28062 8340 ft 104 kts 108°
2026-04-27 06:09 -1.90272 121.28742 8343 ft 104 kts 108°
2026-04-27 06:09 -1.90524 121.29421 8336 ft 103 kts 108°
2026-04-27 06:10 -1.90772 121.30089 8338 ft 103 kts 108°
2026-04-27 06:10 -1.91021 121.30764 8342 ft 103 kts 108°
2026-04-27 06:10 -1.91271 121.31443 8344 ft 107 kts 108°
2026-04-27 06:10 -1.91531 121.32142 8340 ft 107 kts 108°